DAAT

Details ICAO DAAT (TMR)
Name TAMANRASSET
Region Algeria
Timezone Africa/Algiers (UTC+1.0)
Plans Departing 187
Arriving 217
Stats Elevation 4,518 ft / 1,377 m (AMSL)
Location 22.810400° 5.444400°
Runways 2
Magnetic Variation 0.687° E
Sunrise 2018-12-15 06:12:19 UTC / 2018-12-15 07:12:19 Local
Sunset 2018-12-15 16:56:58 UTC / 2018-12-15 17:56:58 Local
Advertisement - Login to hide

Runways

ID Width Length Bearing (true/mag) Surface Threshold Overrun Markings Lighting
02 148 ft / 45 m 11,884 ft / 3,622 m 22.21° / 21.53° ASPHALT 0 ft / 0 m 0 ft / 0 m APP EDGE THRESHOLD
08 148 ft / 45 m 10,169 ft / 3,099 m 81.74° / 81.05° ASPHALT 0 ft / 0 m 0 ft / 0 m APP
20 148 ft / 45 m 11,884 ft / 3,622 m 202.22° / 201.53° ASPHALT 0 ft / 0 m 0 ft / 0 m APP EDGE THRESHOLD
26 148 ft / 45 m 10,169 ft / 3,099 m 261.75° / 261.07° ASPHALT 0 ft / 0 m 0 ft / 0 m APP

Map

Weather


0- 5 10 15 20 25 30 35+ Temperature / °C

Clouds and Precipitation
Forecast for 2018-12-15 06:00 UTC. Updated 5 hours ago

Ground ~20,000 ft ~40,000 ft Winds

METAR

DAAT 150830Z 31013KT CAVOK 14/M05 Q1024

TAF

TAF DAAT 150500Z 1506/1606 33010KT CAVOK BECMG 1508/1512 03008KT

Frequencies

Tower 119.70 MHz
Tower 118.10 MHz
Warning: Do not use this data for real-world aviation or navigation. No guarantee of current accuracy is given.